sensor_id;sensor_type;location;lat;lon;timestamp;temperature;humidity
19580;DHT22;9936;51.040;13.918;2023-06-14T00:01:28;18.00;83.60
19580;DHT22;9936;51.040;13.918;2023-06-14T00:05:14;18.00;83.60
19580;DHT22;9936;51.040;13.918;2023-06-14T00:08:59;17.90;83.90
19580;DHT22;9936;51.040;13.918;2023-06-14T00:12:45;17.90;84.10
19580;DHT22;9936;51.040;13.918;2023-06-14T00:16:31;17.80;84.10
19580;DHT22;9936;51.040;13.918;2023-06-14T00:20:18;17.80;84.30
19580;DHT22;9936;51.040;13.918;2023-06-14T00:24:04;17.70;84.40
19580;DHT22;9936;51.040;13.918;2023-06-14T00:27:50;17.60;84.70
19580;DHT22;9936;51.040;13.918;2023-06-14T00:31:36;17.60;84.80
19580;DHT22;9936;51.040;13.918;2023-06-14T00:35:22;17.50;85.00
19580;DHT22;9936;51.040;13.918;2023-06-14T00:39:07;17.50;85.20
19580;DHT22;9936;51.040;13.918;2023-06-14T00:42:54;17.40;85.20
19580;DHT22;9936;51.040;13.918;2023-06-14T00:46:39;17.40;85.40
19580;DHT22;9936;51.040;13.918;2023-06-14T00:50:26;17.30;85.60
19580;DHT22;9936;51.040;13.918;2023-06-14T00:54:11;17.20;85.70
19580;DHT22;9936;51.040;13.918;2023-06-14T00:57:57;17.20;85.90
19580;DHT22;9936;51.040;13.918;2023-06-14T01:01:43;17.10;85.80
19580;DHT22;9936;51.040;13.918;2023-06-14T01:05:29;17.00;86.20
19580;DHT22;9936;51.040;13.918;2023-06-14T01:17:09;16.90;86.40
19580;DHT22;9936;51.040;13.918;2023-06-14T01:21:02;16.90;86.60
19580;DHT22;9936;51.040;13.918;2023-06-14T01:24:51;16.90;86.60
19580;DHT22;9936;51.040;13.918;2023-06-14T01:28:40;16.90;86.70
19580;DHT22;9936;51.040;13.918;2023-06-14T01:32:28;16.80;86.80
19580;DHT22;9936;51.040;13.918;2023-06-14T01:36:14;16.80;86.90
19580;DHT22;9936;51.040;13.918;2023-06-14T01:40:02;16.70;87.10
19580;DHT22;9936;51.040;13.918;2023-06-14T01:43:50;16.60;87.20
19580;DHT22;9936;51.040;13.918;2023-06-14T01:47:36;16.60;87.40
19580;DHT22;9936;51.040;13.918;2023-06-14T01:51:22;16.60;87.40
19580;DHT22;9936;51.040;13.918;2023-06-14T01:55:08;16.50;87.40
19580;DHT22;9936;51.040;13.918;2023-06-14T01:58:54;16.50;87.50
19580;DHT22;9936;51.040;13.918;2023-06-14T02:02:41;16.40;87.60
19580;DHT22;9936;51.040;13.918;2023-06-14T02:06:26;16.40;87.80
19580;DHT22;9936;51.040;13.918;2023-06-14T02:10:13;16.40;87.80
19580;DHT22;9936;51.040;13.918;2023-06-14T02:13:59;16.30;87.80
19580;DHT22;9936;51.040;13.918;2023-06-14T02:17:47;16.30;88.00
19580;DHT22;9936;51.040;13.918;2023-06-14T02:21:32;16.20;88.10
19580;DHT22;9936;51.040;13.918;2023-06-14T02:25:18;16.20;88.20
19580;DHT22;9936;51.040;13.918;2023-06-14T02:29:04;16.10;88.30
19580;DHT22;9936;51.040;13.918;2023-06-14T02:32:51;16.10;88.50
19580;DHT22;9936;51.040;13.918;2023-06-14T02:36:36;16.00;88.60
19580;DHT22;9936;51.040;13.918;2023-06-14T02:40:26;16.00;88.60
19580;DHT22;9936;51.040;13.918;2023-06-14T02:44:13;15.90;88.70
19580;DHT22;9936;51.040;13.918;2023-06-14T02:47:59;15.90;88.90
19580;DHT22;9936;51.040;13.918;2023-06-14T02:51:45;15.80;88.90
19580;DHT22;9936;51.040;13.918;2023-06-14T02:55:30;15.80;89.00
19580;DHT22;9936;51.040;13.918;2023-06-14T02:59:16;15.70;89.00
19580;DHT22;9936;51.040;13.918;2023-06-14T03:03:02;15.60;89.00
19580;DHT22;9936;51.040;13.918;2023-06-14T03:06:50;15.50;89.10
19580;DHT22;9936;51.040;13.918;2023-06-14T03:10:35;15.50;89.20
19580;DHT22;9936;51.040;13.918;2023-06-14T03:14:21;15.40;89.30
19580;DHT22;9936;51.040;13.918;2023-06-14T03:18:08;15.40;89.50
19580;DHT22;9936;51.040;13.918;2023-06-14T03:21:54;15.40;89.50
19580;DHT22;9936;51.040;13.918;2023-06-14T03:25:42;15.30;89.70
19580;DHT22;9936;51.040;13.918;2023-06-14T03:29:28;15.30;90.00
19580;DHT22;9936;51.040;13.918;2023-06-14T03:33:14;15.20;90.00
19580;DHT22;9936;51.040;13.918;2023-06-14T03:37:01;15.20;90.00
19580;DHT22;9936;51.040;13.918;2023-06-14T03:40:46;15.20;90.10
19580;DHT22;9936;51.040;13.918;2023-06-14T03:44:32;15.10;90.20
19580;DHT22;9936;51.040;13.918;2023-06-14T03:48:17;15.10;90.20
19580;DHT22;9936;51.040;13.918;2023-06-14T03:52:03;15.10;90.30
19580;DHT22;9936;51.040;13.918;2023-06-14T03:55:50;15.10;90.30
19580;DHT22;9936;51.040;13.918;2023-06-14T03:59:39;15.10;90.30
19580;DHT22;9936;51.040;13.918;2023-06-14T04:03:26;15.00;90.30
19580;DHT22;9936;51.040;13.918;2023-06-14T04:07:15;15.10;90.40
19580;DHT22;9936;51.040;13.918;2023-06-14T04:11:04;15.00;90.40
19580;DHT22;9936;51.040;13.918;2023-06-14T04:14:50;15.00;90.50
19580;DHT22;9936;51.040;13.918;2023-06-14T04:18:36;15.00;90.60
19580;DHT22;9936;51.040;13.918;2023-06-14T04:22:22;14.90;90.60
19580;DHT22;9936;51.040;13.918;2023-06-14T04:26:08;14.90;90.70
19580;DHT22;9936;51.040;13.918;2023-06-14T04:29:55;14.90;90.80
19580;DHT22;9936;51.040;13.918;2023-06-14T04:33:45;14.90;91.20
19580;DHT22;9936;51.040;13.918;2023-06-14T04:37:32;14.80;90.80
19580;DHT22;9936;51.040;13.918;2023-06-14T04:41:18;14.80;90.90
19580;DHT22;9936;51.040;13.918;2023-06-14T04:45:04;14.80;91.10
19580;DHT22;9936;51.040;13.918;2023-06-14T04:48:52;14.70;91.10
19580;DHT22;9936;51.040;13.918;2023-06-14T04:52:38;14.80;91.10
19580;DHT22;9936;51.040;13.918;2023-06-14T04:56:24;14.80;91.10
19580;DHT22;9936;51.040;13.918;2023-06-14T05:00:15;14.80;91.10
19580;DHT22;9936;51.040;13.918;2023-06-14T05:04:00;14.80;91.40
19580;DHT22;9936;51.040;13.918;2023-06-14T05:07:46;14.70;91.40
19580;DHT22;9936;51.040;13.918;2023-06-14T05:11:32;14.70;91.30
19580;DHT22;9936;51.040;13.918;2023-06-14T05:15:17;14.70;91.30
19580;DHT22;9936;51.040;13.918;2023-06-14T05:19:03;14.80;91.30
19580;DHT22;9936;51.040;13.918;2023-06-14T05:22:55;14.80;91.30
19580;DHT22;9936;51.040;13.918;2023-06-14T05:26:42;14.80;91.40
19580;DHT22;9936;51.040;13.918;2023-06-14T05:30:27;14.80;91.50
19580;DHT22;9936;51.040;13.918;2023-06-14T05:34:15;14.80;91.40
19580;DHT22;9936;51.040;13.918;2023-06-14T05:38:01;14.90;91.30
19580;DHT22;9936;51.040;13.918;2023-06-14T05:41:47;15.00;91.60
19580;DHT22;9936;51.040;13.918;2023-06-14T05:45:32;15.00;91.60
19580;DHT22;9936;51.040;13.918;2023-06-14T05:49:18;15.00;91.40
19580;DHT22;9936;51.040;13.918;2023-06-14T05:53:04;15.10;91.40
19580;DHT22;9936;51.040;13.918;2023-06-14T05:56:49;15.20;91.80
19580;DHT22;9936;51.040;13.918;2023-06-14T06:00:35;15.30;91.50
19580;DHT22;9936;51.040;13.918;2023-06-14T06:04:21;15.30;92.30
19580;DHT22;9936;51.040;13.918;2023-06-14T06:08:06;15.40;92.50
19580;DHT22;9936;51.040;13.918;2023-06-14T06:11:52;15.60;92.50
19580;DHT22;9936;51.040;13.918;2023-06-14T06:15:38;15.70;92.50
19580;DHT22;9936;51.040;13.918;2023-06-14T06:19:23;15.80;92.50
19580;DHT22;9936;51.040;13.918;2023-06-14T06:23:09;15.90;93.00
19580;DHT22;9936;51.040;13.918;2023-06-14T06:26:55;15.90;92.80
19580;DHT22;9936;51.040;13.918;2023-06-14T06:30:41;15.70;92.70
19580;DHT22;9936;51.040;13.918;2023-06-14T06:34:27;15.80;93.00
19580;DHT22;9936;51.040;13.918;2023-06-14T06:38:13;16.00;92.70
19580;DHT22;9936;51.040;13.918;2023-06-14T06:41:59;16.20;93.00
19580;DHT22;9936;51.040;13.918;2023-06-14T06:45:45;16.40;92.90
19580;DHT22;9936;51.040;13.918;2023-06-14T06:49:31;16.50;92.90
19580;DHT22;9936;51.040;13.918;2023-06-14T06:53:17;16.80;92.70
19580;DHT22;9936;51.040;13.918;2023-06-14T06:57:04;17.00;92.00
19580;DHT22;9936;51.040;13.918;2023-06-14T07:00:49;17.20;91.40
19580;DHT22;9936;51.040;13.918;2023-06-14T07:04:35;17.50;91.10
19580;DHT22;9936;51.040;13.918;2023-06-14T07:08:21;17.70;90.90
19580;DHT22;9936;51.040;13.918;2023-06-14T07:12:07;17.80;90.00
19580;DHT22;9936;51.040;13.918;2023-06-14T07:15:58;18.00;89.00
19580;DHT22;9936;51.040;13.918;2023-06-14T07:19:45;18.10;87.70
19580;DHT22;9936;51.040;13.918;2023-06-14T07:23:32;18.20;87.80
19580;DHT22;9936;51.040;13.918;2023-06-14T07:27:18;18.40;87.20
19580;DHT22;9936;51.040;13.918;2023-06-14T07:31:03;18.50;85.70
19580;DHT22;9936;51.040;13.918;2023-06-14T07:34:49;18.60;85.10
19580;DHT22;9936;51.040;13.918;2023-06-14T07:38:34;18.70;84.70
19580;DHT22;9936;51.040;13.918;2023-06-14T07:42:21;18.90;84.60
19580;DHT22;9936;51.040;13.918;2023-06-14T07:46:07;19.00;82.80
19580;DHT22;9936;51.040;13.918;2023-06-14T07:49:54;19.00;82.10
19580;DHT22;9936;51.040;13.918;2023-06-14T07:53:40;19.10;81.60
19580;DHT22;9936;51.040;13.918;2023-06-14T07:57:27;19.20;81.00
19580;DHT22;9936;51.040;13.918;2023-06-14T08:01:12;19.40;81.40
19580;DHT22;9936;51.040;13.918;2023-06-14T08:04:58;19.50;79.70
19580;DHT22;9936;51.040;13.918;2023-06-14T08:08:44;19.60;78.80
19580;DHT22;9936;51.040;13.918;2023-06-14T08:12:30;19.60;78.70
19580;DHT22;9936;51.040;13.918;2023-06-14T08:16:15;19.60;77.40
19580;DHT22;9936;51.040;13.918;2023-06-14T08:20:04;19.70;76.70
19580;DHT22;9936;51.040;13.918;2023-06-14T08:23:50;19.90;78.10
19580;DHT22;9936;51.040;13.918;2023-06-14T08:27:38;20.00;78.60
19580;DHT22;9936;51.040;13.918;2023-06-14T08:31:24;20.00;78.00
19580;DHT22;9936;51.040;13.918;2023-06-14T08:35:10;20.00;77.00
19580;DHT22;9936;51.040;13.918;2023-06-14T08:38:57;19.80;77.50
19580;DHT22;9936;51.040;13.918;2023-06-14T08:42:44;19.70;77.20
19580;DHT22;9936;51.040;13.918;2023-06-14T08:46:32;19.70;76.10
19580;DHT22;9936;51.040;13.918;2023-06-14T08:50:22;19.70;78.20
19580;DHT22;9936;51.040;13.918;2023-06-14T08:54:11;19.90;77.40
19580;DHT22;9936;51.040;13.918;2023-06-14T08:57:58;20.00;77.40
19580;DHT22;9936;51.040;13.918;2023-06-14T09:01:45;20.10;77.80
19580;DHT22;9936;51.040;13.918;2023-06-14T09:05:30;20.30;76.90
19580;DHT22;9936;51.040;13.918;2023-06-14T09:09:16;20.30;76.90
19580;DHT22;9936;51.040;13.918;2023-06-14T09:13:02;20.20;77.70
19580;DHT22;9936;51.040;13.918;2023-06-14T09:16:48;20.20;78.20
19580;DHT22;9936;51.040;13.918;2023-06-14T09:20:33;20.20;79.20
19580;DHT22;9936;51.040;13.918;2023-06-14T09:24:19;20.30;78.30
19580;DHT22;9936;51.040;13.918;2023-06-14T09:28:07;20.20;77.20
19580;DHT22;9936;51.040;13.918;2023-06-14T09:31:53;20.30;78.10
19580;DHT22;9936;51.040;13.918;2023-06-14T09:35:39;20.30;76.90
19580;DHT22;9936;51.040;13.918;2023-06-14T09:39:24;20.40;78.00
19580;DHT22;9936;51.040;13.918;2023-06-14T09:43:10;20.40;76.70
19580;DHT22;9936;51.040;13.918;2023-06-14T09:46:56;20.40;76.70
19580;DHT22;9936;51.040;13.918;2023-06-14T09:50:44;20.40;76.70
19580;DHT22;9936;51.040;13.918;2023-06-14T09:54:31;20.40;76.20
19580;DHT22;9936;51.040;13.918;2023-06-14T09:58:19;20.50;77.30
19580;DHT22;9936;51.040;13.918;2023-06-14T10:02:10;20.50;77.10
19580;DHT22;9936;51.040;13.918;2023-06-14T10:05:58;20.50;76.20
19580;DHT22;9936;51.040;13.918;2023-06-14T10:09:47;20.60;77.00
19580;DHT22;9936;51.040;13.918;2023-06-14T10:13:35;20.70;76.40
19580;DHT22;9936;51.040;13.918;2023-06-14T10:17:33;20.80;76.20
19580;DHT22;9936;51.040;13.918;2023-06-14T10:25:34;21.00;76.30
19580;DHT22;9936;51.040;13.918;2023-06-14T10:29:20;21.10;76.50
19580;DHT22;9936;51.040;13.918;2023-06-14T10:33:07;21.10;76.50
19580;DHT22;9936;51.040;13.918;2023-06-14T10:37:04;21.10;76.20
19580;DHT22;9936;51.040;13.918;2023-06-14T10:40:55;21.10;76.40
19580;DHT22;9936;51.040;13.918;2023-06-14T10:44:54;21.10;76.00
19580;DHT22;9936;51.040;13.918;2023-06-14T10:48:44;21.00;75.50
19580;DHT22;9936;51.040;13.918;2023-06-14T10:52:33;20.90;75.30
19580;DHT22;9936;51.040;13.918;2023-06-14T10:56:27;21.10;77.20
19580;DHT22;9936;51.040;13.918;2023-06-14T11:00:14;21.20;75.80
19580;DHT22;9936;51.040;13.918;2023-06-14T11:04:10;21.40;76.60
19580;DHT22;9936;51.040;13.918;2023-06-14T11:12:10;21.30;77.40
19580;DHT22;9936;51.040;13.918;2023-06-14T11:15:57;21.20;77.50
19580;DHT22;9936;51.040;13.918;2023-06-14T11:19:44;21.00;78.20
19580;DHT22;9936;51.040;13.918;2023-06-14T11:28:05;20.90;78.70
19580;DHT22;9936;51.040;13.918;2023-06-14T11:31:51;21.00;79.30
19580;DHT22;9936;51.040;13.918;2023-06-14T11:35:37;21.10;78.70
19580;DHT22;9936;51.040;13.918;2023-06-14T11:39:26;21.20;78.50
19580;DHT22;9936;51.040;13.918;2023-06-14T11:43:12;21.30;77.10
19580;DHT22;9936;51.040;13.918;2023-06-14T11:46:59;21.20;77.90
19580;DHT22;9936;51.040;13.918;2023-06-14T11:50:50;21.20;79.00
19580;DHT22;9936;51.040;13.918;2023-06-14T11:54:37;21.20;78.60
19580;DHT22;9936;51.040;13.918;2023-06-14T11:58:23;21.20;78.20
19580;DHT22;9936;51.040;13.918;2023-06-14T12:02:08;21.20;78.30
19580;DHT22;9936;51.040;13.918;2023-06-14T12:06:08;21.10;78.20
19580;DHT22;9936;51.040;13.918;2023-06-14T12:13:41;21.10;79.40
19580;DHT22;9936;51.040;13.918;2023-06-14T12:17:36;21.20;79.60
19580;DHT22;9936;51.040;13.918;2023-06-14T12:21:24;21.30;79.90
19580;DHT22;9936;51.040;13.918;2023-06-14T12:25:23;21.30;80.00
19580;DHT22;9936;51.040;13.918;2023-06-14T12:29:12;21.60;79.40
19580;DHT22;9936;51.040;13.918;2023-06-14T12:32:58;21.30;79.10
19580;DHT22;9936;51.040;13.918;2023-06-14T12:36:43;21.20;80.00
19580;DHT22;9936;51.040;13.918;2023-06-14T12:40:29;21.20;78.40
19580;DHT22;9936;51.040;13.918;2023-06-14T12:44:15;21.30;78.50
19580;DHT22;9936;51.040;13.918;2023-06-14T12:48:01;21.40;79.30
19580;DHT22;9936;51.040;13.918;2023-06-14T12:51:47;21.10;79.90
19580;DHT22;9936;51.040;13.918;2023-06-14T12:55:33;21.00;81.10
19580;DHT22;9936;51.040;13.918;2023-06-14T12:59:18;21.10;82.00
19580;DHT22;9936;51.040;13.918;2023-06-14T13:03:04;21.30;80.70
19580;DHT22;9936;51.040;13.918;2023-06-14T13:06:50;21.40;79.00
19580;DHT22;9936;51.040;13.918;2023-06-14T13:10:36;21.50;77.50
19580;DHT22;9936;51.040;13.918;2023-06-14T13:14:21;21.70;78.00
19580;DHT22;9936;51.040;13.918;2023-06-14T13:18:11;21.70;79.10
19580;DHT22;9936;51.040;13.918;2023-06-14T13:21:58;21.80;80.60
19580;DHT22;9936;51.040;13.918;2023-06-14T13:25:44;21.80;78.00
19580;DHT22;9936;51.040;13.918;2023-06-14T13:29:30;21.50;77.50
19580;DHT22;9936;51.040;13.918;2023-06-14T13:33:16;21.50;77.80
19580;DHT22;9936;51.040;13.918;2023-06-14T13:37:02;21.50;77.30
19580;DHT22;9936;51.040;13.918;2023-06-14T13:40:48;21.70;77.60
19580;DHT22;9936;51.040;13.918;2023-06-14T13:44:58;21.80;78.00
19580;DHT22;9936;51.040;13.918;2023-06-14T13:48:44;21.80;76.30
19580;DHT22;9936;51.040;13.918;2023-06-14T13:52:32;21.90;75.30
19580;DHT22;9936;51.040;13.918;2023-06-14T13:56:18;22.00;76.00
19580;DHT22;9936;51.040;13.918;2023-06-14T14:00:04;22.10;75.40
19580;DHT22;9936;51.040;13.918;2023-06-14T14:03:50;22.30;76.80
19580;DHT22;9936;51.040;13.918;2023-06-14T14:07:36;22.30;75.90
19580;DHT22;9936;51.040;13.918;2023-06-14T14:11:23;22.20;73.40
19580;DHT22;9936;51.040;13.918;2023-06-14T14:15:09;22.10;73.60
19580;DHT22;9936;51.040;13.918;2023-06-14T14:18:58;22.10;73.40
19580;DHT22;9936;51.040;13.918;2023-06-14T14:22:44;22.20;75.40
19580;DHT22;9936;51.040;13.918;2023-06-14T14:26:29;22.30;73.40
19580;DHT22;9936;51.040;13.918;2023-06-14T14:30:18;22.20;71.90
19580;DHT22;9936;51.040;13.918;2023-06-14T14:34:08;22.20;74.10
19580;DHT22;9936;51.040;13.918;2023-06-14T14:37:54;22.40;72.60
19580;DHT22;9936;51.040;13.918;2023-06-14T14:41:40;22.50;69.60
19580;DHT22;9936;51.040;13.918;2023-06-14T14:45:30;22.60;69.10
19580;DHT22;9936;51.040;13.918;2023-06-14T14:49:18;22.70;69.30
19580;DHT22;9936;51.040;13.918;2023-06-14T14:57:14;22.80;68.20
19580;DHT22;9936;51.040;13.918;2023-06-14T15:01:06;22.90;68.00
19580;DHT22;9936;51.040;13.918;2023-06-14T15:04:52;22.90;68.40
19580;DHT22;9936;51.040;13.918;2023-06-14T15:08:38;22.80;68.20
19580;DHT22;9936;51.040;13.918;2023-06-14T15:12:23;22.80;67.90
19580;DHT22;9936;51.040;13.918;2023-06-14T15:16:09;22.80;67.80
19580;DHT22;9936;51.040;13.918;2023-06-14T15:19:55;22.80;68.00
19580;DHT22;9936;51.040;13.918;2023-06-14T15:23:40;22.90;67.10
19580;DHT22;9936;51.040;13.918;2023-06-14T15:27:26;22.80;67.10
19580;DHT22;9936;51.040;13.918;2023-06-14T15:31:13;22.80;65.40
19580;DHT22;9936;51.040;13.918;2023-06-14T15:34:58;22.80;66.40
19580;DHT22;9936;51.040;13.918;2023-06-14T15:38:44;22.60;65.00
19580;DHT22;9936;51.040;13.918;2023-06-14T15:42:30;22.60;67.00
19580;DHT22;9936;51.040;13.918;2023-06-14T15:46:16;22.80;67.40
19580;DHT22;9936;51.040;13.918;2023-06-14T15:50:02;22.90;65.20
19580;DHT22;9936;51.040;13.918;2023-06-14T15:53:50;22.90;64.70
19580;DHT22;9936;51.040;13.918;2023-06-14T15:57:38;22.90;64.80
19580;DHT22;9936;51.040;13.918;2023-06-14T16:01:31;23.00;64.80
19580;DHT22;9936;51.040;13.918;2023-06-14T16:05:17;22.90;63.80
19580;DHT22;9936;51.040;13.918;2023-06-14T16:09:03;22.90;66.10
19580;DHT22;9936;51.040;13.918;2023-06-14T16:12:49;23.00;66.00
19580;DHT22;9936;51.040;13.918;2023-06-14T16:16:35;23.00;65.10
19580;DHT22;9936;51.040;13.918;2023-06-14T16:20:20;23.10;66.10
19580;DHT22;9936;51.040;13.918;2023-06-14T16:24:07;23.10;65.60
19580;DHT22;9936;51.040;13.918;2023-06-14T16:27:53;23.10;64.30
19580;DHT22;9936;51.040;13.918;2023-06-14T16:31:40;23.10;63.80
19580;DHT22;9936;51.040;13.918;2023-06-14T16:35:26;23.10;65.20
19580;DHT22;9936;51.040;13.918;2023-06-14T16:39:11;23.10;66.10
19580;DHT22;9936;51.040;13.918;2023-06-14T16:42:57;23.20;66.00
19580;DHT22;9936;51.040;13.918;2023-06-14T16:46:43;23.30;66.10
19580;DHT22;9936;51.040;13.918;2023-06-14T16:50:29;23.30;66.10
19580;DHT22;9936;51.040;13.918;2023-06-14T16:54:14;23.10;65.20
19580;DHT22;9936;51.040;13.918;2023-06-14T16:58:00;23.30;66.10
19580;DHT22;9936;51.040;13.918;2023-06-14T17:01:50;23.20;65.50
19580;DHT22;9936;51.040;13.918;2023-06-14T17:05:36;23.20;65.00
19580;DHT22;9936;51.040;13.918;2023-06-14T17:09:21;23.20;65.70
19580;DHT22;9936;51.040;13.918;2023-06-14T17:13:07;23.10;66.20
19580;DHT22;9936;51.040;13.918;2023-06-14T17:16:53;23.20;66.60
19580;DHT22;9936;51.040;13.918;2023-06-14T17:20:38;23.20;66.10
19580;DHT22;9936;51.040;13.918;2023-06-14T17:24:24;23.10;65.90
19580;DHT22;9936;51.040;13.918;2023-06-14T17:28:10;23.10;65.90
19580;DHT22;9936;51.040;13.918;2023-06-14T17:31:55;23.10;66.90
19580;DHT22;9936;51.040;13.918;2023-06-14T17:35:41;23.00;66.80
19580;DHT22;9936;51.040;13.918;2023-06-14T17:39:33;23.00;67.10
19580;DHT22;9936;51.040;13.918;2023-06-14T17:43:21;23.10;68.40
19580;DHT22;9936;51.040;13.918;2023-06-14T17:47:08;23.10;68.40
19580;DHT22;9936;51.040;13.918;2023-06-14T17:50:54;23.10;66.70
19580;DHT22;9936;51.040;13.918;2023-06-14T17:54:40;23.00;67.40
19580;DHT22;9936;51.040;13.918;2023-06-14T17:58:25;23.00;68.50
19580;DHT22;9936;51.040;13.918;2023-06-14T18:02:14;23.10;69.00
19580;DHT22;9936;51.040;13.918;2023-06-14T18:06:00;23.00;67.50
19580;DHT22;9936;51.040;13.918;2023-06-14T18:09:45;22.90;67.70
19580;DHT22;9936;51.040;13.918;2023-06-14T18:13:36;22.80;68.30
19580;DHT22;9936;51.040;13.918;2023-06-14T18:17:22;22.70;69.80
19580;DHT22;9936;51.040;13.918;2023-06-14T18:21:08;22.70;69.70
19580;DHT22;9936;51.040;13.918;2023-06-14T18:24:54;22.60;70.60
19580;DHT22;9936;51.040;13.918;2023-06-14T18:28:39;22.60;70.80
19580;DHT22;9936;51.040;13.918;2023-06-14T18:32:25;22.60;71.70
19580;DHT22;9936;51.040;13.918;2023-06-14T18:36:15;22.70;72.80
19580;DHT22;9936;51.040;13.918;2023-06-14T18:40:03;22.70;73.40
19580;DHT22;9936;51.040;13.918;2023-06-14T18:43:49;22.80;74.40
19580;DHT22;9936;51.040;13.918;2023-06-14T18:47:35;22.80;74.80
19580;DHT22;9936;51.040;13.918;2023-06-14T18:51:20;22.80;75.70
19580;DHT22;9936;51.040;13.918;2023-06-14T18:55:06;22.80;75.70
19580;DHT22;9936;51.040;13.918;2023-06-14T18:58:52;22.80;76.50
19580;DHT22;9936;51.040;13.918;2023-06-14T19:02:39;22.70;77.00
19580;DHT22;9936;51.040;13.918;2023-06-14T19:06:24;22.60;76.60
19580;DHT22;9936;51.040;13.918;2023-06-14T19:10:11;22.60;77.70
19580;DHT22;9936;51.040;13.918;2023-06-14T19:13:56;22.50;77.80
19580;DHT22;9936;51.040;13.918;2023-06-14T19:17:55;22.50;78.40
19580;DHT22;9936;51.040;13.918;2023-06-14T19:21:41;22.40;78.00
19580;DHT22;9936;51.040;13.918;2023-06-14T19:25:27;22.30;77.70
19580;DHT22;9936;51.040;13.918;2023-06-14T19:29:12;22.20;78.20
19580;DHT22;9936;51.040;13.918;2023-06-14T19:32:58;22.10;78.10
19580;DHT22;9936;51.040;13.918;2023-06-14T19:36:43;22.10;78.40
19580;DHT22;9936;51.040;13.918;2023-06-14T19:40:29;22.00;78.70
19580;DHT22;9936;51.040;13.918;2023-06-14T19:44:15;22.00;79.00
19580;DHT22;9936;51.040;13.918;2023-06-14T19:48:01;21.80;78.70
19580;DHT22;9936;51.040;13.918;2023-06-14T19:51:47;21.70;79.10
19580;DHT22;9936;51.040;13.918;2023-06-14T19:55:32;21.60;80.00
19580;DHT22;9936;51.040;13.918;2023-06-14T19:59:38;21.60;79.80
19580;DHT22;9936;51.040;13.918;2023-06-14T20:03:23;21.60;80.30
19580;DHT22;9936;51.040;13.918;2023-06-14T20:07:09;21.40;79.60
19580;DHT22;9936;51.040;13.918;2023-06-14T20:10:55;21.30;79.50
19580;DHT22;9936;51.040;13.918;2023-06-14T20:14:40;21.10;79.70
19580;DHT22;9936;51.040;13.918;2023-06-14T20:18:26;21.00;79.80
19580;DHT22;9936;51.040;13.918;2023-06-14T20:22:12;20.90;79.50
19580;DHT22;9936;51.040;13.918;2023-06-14T20:25:57;20.80;79.70
19580;DHT22;9936;51.040;13.918;2023-06-14T20:29:43;20.70;80.00
19580;DHT22;9936;51.040;13.918;2023-06-14T20:33:29;20.70;79.80
19580;DHT22;9936;51.040;13.918;2023-06-14T20:37:15;20.60;80.20
19580;DHT22;9936;51.040;13.918;2023-06-14T20:41:02;20.50;81.40
19580;DHT22;9936;51.040;13.918;2023-06-14T20:44:48;20.50;80.70
19580;DHT22;9936;51.040;13.918;2023-06-14T20:48:50;20.40;80.80
19580;DHT22;9936;51.040;13.918;2023-06-14T20:52:40;20.40;81.20
19580;DHT22;9936;51.040;13.918;2023-06-14T20:56:25;20.40;81.70
19580;DHT22;9936;51.040;13.918;2023-06-14T21:00:11;20.30;81.80
19580;DHT22;9936;51.040;13.918;2023-06-14T21:04:08;20.30;82.00
19580;DHT22;9936;51.040;13.918;2023-06-14T21:07:54;20.30;82.00
19580;DHT22;9936;51.040;13.918;2023-06-14T21:11:40;20.30;82.20
19580;DHT22;9936;51.040;13.918;2023-06-14T21:15:33;20.20;82.30
19580;DHT22;9936;51.040;13.918;2023-06-14T21:19:19;20.10;82.70
19580;DHT22;9936;51.040;13.918;2023-06-14T21:23:04;20.00;82.50
19580;DHT22;9936;51.040;13.918;2023-06-14T21:26:51;20.00;82.80
19580;DHT22;9936;51.040;13.918;2023-06-14T21:30:37;19.90;82.90
19580;DHT22;9936;51.040;13.918;2023-06-14T21:34:23;19.90;83.10
19580;DHT22;9936;51.040;13.918;2023-06-14T21:38:08;19.80;83.10
19580;DHT22;9936;51.040;13.918;2023-06-14T21:41:54;19.80;83.50
19580;DHT22;9936;51.040;13.918;2023-06-14T21:45:40;19.70;83.40
19580;DHT22;9936;51.040;13.918;2023-06-14T21:49:25;19.60;83.70
19580;DHT22;9936;51.040;13.918;2023-06-14T21:53:11;19.60;83.60
19580;DHT22;9936;51.040;13.918;2023-06-14T21:56:57;19.50;83.70
19580;DHT22;9936;51.040;13.918;2023-06-14T22:00:42;19.40;84.00
19580;DHT22;9936;51.040;13.918;2023-06-14T22:04:28;19.40;84.10
19580;DHT22;9936;51.040;13.918;2023-06-14T22:08:13;19.40;83.70
19580;DHT22;9936;51.040;13.918;2023-06-14T22:11:59;19.30;84.10
19580;DHT22;9936;51.040;13.918;2023-06-14T22:15:47;19.20;84.10
19580;DHT22;9936;51.040;13.918;2023-06-14T22:19:33;19.10;84.10
19580;DHT22;9936;51.040;13.918;2023-06-14T22:23:22;19.10;84.40
19580;DHT22;9936;51.040;13.918;2023-06-14T22:27:11;19.00;84.40
19580;DHT22;9936;51.040;13.918;2023-06-14T22:30:56;18.90;84.70
19580;DHT22;9936;51.040;13.918;2023-06-14T22:34:43;18.90;85.00
19580;DHT22;9936;51.040;13.918;2023-06-14T22:38:28;18.90;85.40
19580;DHT22;9936;51.040;13.918;2023-06-14T22:42:15;18.80;85.20
19580;DHT22;9936;51.040;13.918;2023-06-14T22:46:04;18.80;85.40
19580;DHT22;9936;51.040;13.918;2023-06-14T22:49:52;18.80;85.30
19580;DHT22;9936;51.040;13.918;2023-06-14T22:53:39;18.70;85.50
19580;DHT22;9936;51.040;13.918;2023-06-14T22:57:25;18.70;85.70
19580;DHT22;9936;51.040;13.918;2023-06-14T23:01:13;18.60;85.60
19580;DHT22;9936;51.040;13.918;2023-06-14T23:04:59;18.60;85.80
19580;DHT22;9936;51.040;13.918;2023-06-14T23:08:45;18.50;86.10
19580;DHT22;9936;51.040;13.918;2023-06-14T23:12:31;18.50;86.20
19580;DHT22;9936;51.040;13.918;2023-06-14T23:16:19;18.40;86.50
19580;DHT22;9936;51.040;13.918;2023-06-14T23:20:05;18.40;86.70
19580;DHT22;9936;51.040;13.918;2023-06-14T23:23:58;18.40;86.80
19580;DHT22;9936;51.040;13.918;2023-06-14T23:27:44;18.30;86.90
19580;DHT22;9936;51.040;13.918;2023-06-14T23:31:30;18.20;87.00
19580;DHT22;9936;51.040;13.918;2023-06-14T23:35:18;18.20;87.20
19580;DHT22;9936;51.040;13.918;2023-06-14T23:39:04;18.20;87.30
19580;DHT22;9936;51.040;13.918;2023-06-14T23:42:50;18.20;87.50
19580;DHT22;9936;51.040;13.918;2023-06-14T23:46:36;18.10;87.40
19580;DHT22;9936;51.040;13.918;2023-06-14T23:50:22;18.10;88.40
19580;DHT22;9936;51.040;13.918;2023-06-14T23:54:08;18.00;87.70
19580;DHT22;9936;51.040;13.918;2023-06-14T23:57:57;18.00;87.80
